Time;durP1;ratioP1;P1;durP2;ratioP2;P2;SDS_P1;SDS_P2;PMS_P1;PMS_P2;Temp;Humidity;BMP_temperature;BMP_pressure;BME280_temperature;BME280_humidity;BME280_pressure;Samples;Min_cycle;Max_cycle;Signal;HPM_P1;HPM_P2
2022/01/30 00:00:07;;;;;;;15.77;5.90;;;-6.40;99.90;;;;;;5098854;28;20224;-75
2022/01/30 00:02:33;;;;;;;15.80;5.60;;;-6.90;99.90;;;;;;5099843;28;20267;-71
2022/01/30 00:04:58;;;;;;;27.40;5.17;;;-4.80;99.90;;;;;;5098931;28;20269;-77
2022/01/30 00:07:24;;;;;;;27.80;6.23;;;-7.00;99.90;;;;;;5099834;28;20582;-77
2022/01/30 00:09:51;;;;;;;22.87;6.57;;;-7.10;99.90;;;;;;5099902;28;20163;-76
2022/01/30 00:12:19;;;;;;;16.67;5.87;;;-6.70;99.90;;;;;;5099760;28;20181;-74
2022/01/30 00:14:45;;;;;;;22.70;6.00;;;-6.70;99.90;;;;;;5099726;28;20163;-76
2022/01/30 00:17:19;;;;;;;21.87;5.57;;;-6.40;99.90;;;;;;5099818;28;20172;-73
2022/01/30 00:20:02;;;;;;;19.33;5.47;;;-7.10;99.90;;;;;;5099499;28;20232;-75
2022/01/30 00:25:02;;;;;;;20.13;5.10;;;-6.80;99.90;;;;;;5099346;28;20170;-75
2022/01/30 00:27:32;;;;;;;17.97;5.30;;;-7.10;99.90;;;;;;5099590;28;20499;-73
2022/01/30 00:29:58;;;;;;;16.77;5.37;;;-4.70;99.90;;;;;;5099502;28;20399;-76
2022/01/30 00:32:24;;;;;;;21.50;6.30;;;-7.50;99.90;;;;;;5099500;28;20174;-77
2022/01/30 00:34:50;;;;;;;20.80;4.80;;;-7.90;99.90;;;;;;5099444;28;20220;-76
2022/01/30 00:37:17;;;;;;;15.40;6.00;;;-7.70;99.90;;;;;;5099360;28;20402;-75
2022/01/30 00:39:43;;;;;;;18.53;5.70;;;-7.70;99.90;;;;;;5099087;28;20174;-75
2022/01/30 00:42:09;;;;;;;15.93;4.90;;;-7.50;99.90;;;;;;5099271;28;20413;-77
2022/01/30 00:44:35;;;;;;;21.70;5.63;;;-6.80;99.90;;;;;;5099177;28;20167;-76
2022/01/30 00:47:03;;;;;;;19.13;4.97;;;-6.70;99.90;;;;;;5099148;28;20453;-74
2022/01/30 00:49:29;;;;;;;30.33;5.73;;;-6.60;99.90;;;;;;5099237;28;20272;-76
2022/01/30 00:51:54;;;;;;;24.47;6.80;;;-7.10;99.90;;;;;;5099110;28;20189;-76
2022/01/30 00:54:20;;;;;;;15.70;6.30;;;-6.80;99.90;;;;;;5098808;28;20163;-74
2022/01/30 00:56:46;;;;;;;16.93;4.47;;;-7.40;99.90;;;;;;5099084;28;20174;-73
2022/01/30 00:59:12;;;;;;;18.77;5.70;;;-7.60;99.90;;;;;;5099054;28;20170;-76
2022/01/30 01:01:38;;;;;;;24.70;6.57;;;-5.40;99.90;;;;;;5098758;28;20268;-76
2022/01/30 01:04:04;;;;;;;17.67;4.97;;;-7.50;99.90;;;;;;5098965;28;20171;-75
2022/01/30 01:06:30;;;;;;;18.77;5.30;;;-6.80;99.90;;;;;;5097602;28;20504;-75
2022/01/30 01:09:01;;;;;;;22.90;5.47;;;-6.40;99.90;;;;;;5098184;28;20184;-73
2022/01/30 01:25:04;;;;;;;20.33;5.70;;;-6.40;99.90;;;;;;5098320;28;20406;-76
2022/01/30 01:27:29;;;;;;;19.27;4.37;;;-6.40;99.90;;;;;;5098362;28;20555;-73
2022/01/30 01:29:55;;;;;;;17.57;4.07;;;-6.00;99.90;;;;;;5098448;28;20849;-72
2022/01/30 01:32:21;;;;;;;23.73;4.53;;;-5.80;99.90;;;;;;5098309;28;20170;-72
2022/01/30 01:34:47;;;;;;;16.87;4.70;;;-6.00;99.90;;;;;;5098314;28;20244;-75
2022/01/30 01:37:13;;;;;;;12.77;4.73;;;-6.30;99.90;;;;;;5098224;28;20589;-72
2022/01/30 01:39:38;;;;;;;19.50;5.07;;;-6.70;99.90;;;;;;5098126;28;20408;-74
2022/01/30 01:42:05;;;;;;;15.40;4.00;;;-6.50;99.90;;;;;;5097953;28;20181;-73
2022/01/30 01:44:39;;;;;;;18.20;5.00;;;-6.60;99.90;;;;;;5098218;28;20199;-77
2022/01/30 01:47:08;;;;;;;20.17;5.97;;;-7.90;99.90;;;;;;5097833;28;20442;-73
2022/01/30 01:49:34;;;;;;;17.83;4.83;;;-7.60;99.90;;;;;;5097992;28;20430;-74
2022/01/30 01:54:43;;;;;;;28.10;4.70;;;-6.90;99.90;;;;;;5098121;28;20174;-73
2022/01/30 01:57:08;;;;;;;12.13;4.20;;;-7.10;99.90;;;;;;5097864;28;20400;-77
2022/01/30 01:59:34;;;;;;;14.97;5.43;;;-6.80;99.90;;;;;;5097822;28;20585;-74
2022/01/30 02:02:01;;;;;;;17.27;4.80;;;-7.40;99.90;;;;;;5097603;28;20213;-72
2022/01/30 02:04:28;;;;;;;11.57;4.03;;;-7.40;99.90;;;;;;5097703;28;20166;-72
2022/01/30 02:07:08;;;;;;;16.57;3.90;;;-7.10;99.90;;;;;;5097385;28;20481;-72
2022/01/30 02:09:34;;;;;;;18.40;4.43;;;-6.40;99.90;;;;;;5097660;28;20391;-71
2022/01/30 02:12:01;;;;;;;17.47;4.77;;;-7.80;99.90;;;;;;5097477;28;20170;-73
2022/01/30 02:27:59;;;;;;;25.07;4.77;;;-6.50;99.90;;;;;;5097221;28;20402;-76
2022/01/30 02:30:31;;;;;;;21.97;4.67;;;-7.80;99.90;;;;;;5097133;28;20403;-76
2022/01/30 02:32:57;;;;;;;19.40;3.90;;;-7.20;99.90;;;;;;5097035;28;20406;-73
2022/01/30 02:35:23;;;;;;;19.73;4.30;;;-8.00;99.90;;;;;;5096829;28;20398;-74
2022/01/30 02:37:52;;;;;;;15.30;3.60;;;-7.50;99.90;;;;;;5097057;28;20770;-75
2022/01/30 02:40:18;;;;;;;13.90;3.93;;;-7.00;99.90;;;;;;5096946;28;20170;-76
2022/01/30 02:42:49;;;;;;;16.43;4.40;;;-7.10;99.90;;;;;;5096854;28;20426;-72
2022/01/30 02:45:16;;;;;;;15.10;3.67;;;-6.70;99.90;;;;;;5097001;28;20181;-72
2022/01/30 02:48:19;;;;;;;15.13;4.23;;;-6.80;99.90;;;;;;5097226;28;20457;-73
2022/01/30 02:50:56;;;;;;;9.60;4.93;;;-6.40;99.90;;;;;;5095362;28;20424;-75
2022/01/30 02:53:31;;;;;;;23.17;4.30;;;-6.60;99.90;;;;;;5096547;28;20437;-74
2022/01/30 02:55:57;;;;;;;16.47;4.63;;;-6.50;99.90;;;;;;5096752;28;20421;-73
2022/01/30 02:58:23;;;;;;;20.40;6.30;;;-6.50;99.90;;;;;;5096602;28;20832;-74
2022/01/30 03:00:49;;;;;;;16.93;4.40;;;-7.00;99.90;;;;;;5095654;28;20425;-74
2022/01/30 03:03:14;;;;;;;14.27;4.03;;;-6.60;99.90;;;;;;5096295;28;20197;-74
2022/01/30 03:05:40;;;;;;;19.43;5.03;;;-6.10;99.90;;;;;;5096030;28;20181;-76
2022/01/30 03:08:07;;;;;;;13.33;4.00;;;-6.80;99.90;;;;;;5096411;28;20199;-73
2022/01/30 03:10:33;;;;;;;23.80;5.77;;;-7.10;99.90;;;;;;5096558;28;20697;-73
2022/01/30 03:12:58;;;;;;;18.57;4.33;;;-7.40;99.90;;;;;;5096375;28;20210;-74
2022/01/30 03:15:24;;;;;;;16.37;4.20;;;-5.80;99.90;;;;;;5096389;28;20181;-75
2022/01/30 03:17:50;;;;;;;11.23;5.57;;;-8.00;99.90;;;;;;5096388;28;20226;-76
2022/01/30 03:20:16;;;;;;;12.67;3.97;;;-8.20;99.90;;;;;;5096081;28;20179;-77
2022/01/30 03:22:42;;;;;;;20.07;5.27;;;-8.60;99.90;;;;;;5096272;28;20192;-78
2022/01/30 03:25:07;;;;;;;16.63;5.43;;;-7.10;99.90;;;;;;5096260;28;20201;-76
2022/01/30 03:27:33;;;;;;;23.53;4.80;;;-7.30;99.90;;;;;;5096093;28;20204;-73
2022/01/30 03:30:06;;;;;;;15.73;3.63;;;-7.10;99.90;;;;;;5095085;28;20204;-76
2022/01/30 03:32:32;;;;;;;21.87;3.80;;;-7.60;99.90;;;;;;5094918;28;20312;-76
2022/01/30 03:34:58;;;;;;;14.73;4.77;;;-7.50;99.90;;;;;;5095761;28;20709;-75
2022/01/30 03:37:24;;;;;;;13.03;4.10;;;-7.50;99.90;;;;;;5096148;28;20417;-75
2022/01/30 03:39:49;;;;;;;15.40;4.00;;;-7.10;99.90;;;;;;5094894;28;20181;-75
2022/01/30 03:42:15;;;;;;;13.50;4.97;;;-8.20;99.90;;;;;;5095884;28;20186;-75
2022/01/30 03:44:41;;;;;;;11.90;4.30;;;-7.30;99.90;;;;;;5095896;28;20178;-76
2022/01/30 03:47:07;;;;;;;11.77;4.87;;;-6.60;99.90;;;;;;5096003;28;20232;-77
2022/01/30 03:49:34;;;;;;;15.83;3.97;;;-7.70;99.90;;;;;;5095716;28;20172;-76
2022/01/30 03:52:00;;;;;;;19.33;5.27;;;-7.20;99.90;;;;;;5095959;28;20164;-76
2022/01/30 03:54:26;;;;;;;15.50;4.57;;;-7.20;99.90;;;;;;5094784;28;20435;-76
2022/01/30 03:56:51;;;;;;;12.87;3.73;;;-6.70;99.90;;;;;;5096043;28;20171;-76
2022/01/30 03:59:17;;;;;;;20.07;4.20;;;-6.50;99.90;;;;;;5095890;28;20170;-76
2022/01/30 04:01:43;;;;;;;24.90;4.33;;;-7.00;99.90;;;;;;5095633;28;20198;-75
2022/01/30 04:04:09;;;;;;;21.93;6.03;;;-7.00;99.90;;;;;;5095530;28;20178;-76
2022/01/30 04:06:34;;;;;;;20.73;6.10;;;-7.40;99.90;;;;;;5095846;28;20198;-72
2022/01/30 04:09:00;;;;;;;18.63;3.80;;;-7.20;99.90;;;;;;5095630;28;20162;-71
2022/01/30 04:11:29;;;;;;;19.07;3.73;;;-6.90;99.90;;;;;;5095887;28;20220;-70
2022/01/30 04:13:55;;;;;;;21.73;5.33;;;-7.10;99.90;;;;;;5095822;28;20173;-71
2022/01/30 04:16:21;;;;;;;21.00;4.03;;;-7.50;99.90;;;;;;5095622;28;20870;-70
2022/01/30 04:18:47;;;;;;;12.20;3.60;;;-8.30;99.90;;;;;;5095448;28;20409;-74
2022/01/30 04:21:13;;;;;;;19.70;4.93;;;-7.40;99.90;;;;;;5095498;28;20207;-71
2022/01/30 04:23:39;;;;;;;22.33;4.50;;;-7.50;99.90;;;;;;5095663;28;20205;-72
2022/01/30 04:26:05;;;;;;;19.23;4.80;;;-7.90;99.90;;;;;;5095444;28;20538;-72
2022/01/30 04:28:31;;;;;;;17.33;4.70;;;-8.20;99.90;;;;;;5095577;28;20391;-70
2022/01/30 04:30:57;;;;;;;19.47;4.97;;;-8.10;99.90;;;;;;5095499;28;20398;-71
2022/01/30 04:33:23;;;;;;;13.37;4.47;;;-8.10;99.90;;;;;;5095308;28;20174;-71
2022/01/30 04:35:49;;;;;;;10.83;5.20;;;-8.10;99.90;;;;;;5095339;28;20229;-71
2022/01/30 04:41:21;;;;;;;26.80;6.17;;;-8.20;99.90;;;;;;5095568;28;20393;-72
2022/01/30 04:59:52;;;;;;;18.83;5.43;;;-7.50;99.90;;;;;;5099222;28;20498;-71
2022/01/30 05:07:38;;;;;;;19.63;5.40;;;-9.10;99.90;;;;;;5099222;28;20457;-70
2022/01/30 05:10:04;;;;;;;25.23;4.97;;;-8.80;99.90;;;;;;5098767;28;20401;-73
2022/01/30 05:12:38;;;;;;;19.37;4.83;;;-8.30;99.90;;;;;;5097556;28;20440;-73
2022/01/30 05:15:05;;;;;;;15.67;4.17;;;-9.10;99.90;;;;;;5098538;28;20421;-72
2022/01/30 05:17:32;;;;;;;16.20;4.87;;;-8.90;99.90;;;;;;5098653;28;20401;-75
2022/01/30 05:19:58;;;;;;;19.00;5.00;;;-8.50;99.90;;;;;;5097457;28;20411;-72
2022/01/30 05:22:24;;;;;;;16.53;3.43;;;-8.20;99.90;;;;;;5098260;28;20426;-72
2022/01/30 05:24:50;;;;;;;20.43;3.70;;;-8.20;99.90;;;;;;5098559;28;20940;-70
2022/01/30 05:27:16;;;;;;;15.47;4.03;;;-8.80;99.90;;;;;;5098263;28;20499;-71
2022/01/30 05:29:42;;;;;;;16.50;4.60;;;-8.00;99.90;;;;;;5097131;28;20179;-71
2022/01/30 05:32:08;;;;;;;17.73;4.50;;;-9.20;99.90;;;;;;5098310;28;20441;-71
2022/01/30 05:34:34;;;;;;;15.97;4.07;;;-8.70;99.90;;;;;;5098370;28;20406;-72
2022/01/30 05:37:01;;;;;;;12.77;3.97;;;-8.50;99.90;;;;;;5098131;28;20407;-70
2022/01/30 05:39:27;;;;;;;21.17;5.50;;;-8.60;99.90;;;;;;5098433;28;20172;-70
2022/01/30 05:41:55;;;;;;;18.60;3.83;;;-8.10;99.90;;;;;;5096927;28;20866;-72
2022/01/30 05:44:23;;;;;;;16.43;4.77;;;-8.00;99.90;;;;;;5097934;28;20852;-72
2022/01/30 05:46:54;;;;;;;18.57;4.03;;;-7.30;99.90;;;;;;5097985;28;20449;-72
2022/01/30 05:49:21;;;;;;;13.00;4.00;;;-7.60;99.90;;;;;;5098233;28;20438;-72
2022/01/30 05:51:47;;;;;;;11.83;3.83;;;-7.40;99.90;;;;;;5097985;28;20407;-71
2022/01/30 05:54:12;;;;;;;15.40;4.97;;;-8.20;99.90;;;;;;5097366;28;20400;-71
2022/01/30 05:56:38;;;;;;;16.37;4.33;;;-7.80;99.90;;;;;;5097272;28;20174;-71
2022/01/30 05:59:05;;;;;;;16.83;4.37;;;-8.10;99.90;;;;;;5097524;28;20611;-71
2022/01/30 06:01:31;;;;;;;18.20;4.80;;;-7.60;99.90;;;;;;5098082;28;20187;-71
2022/01/30 06:03:57;;;;;;;14.30;4.17;;;-6.30;99.90;;;;;;5097656;28;20517;-71
2022/01/30 06:06:22;;;;;;;15.53;5.47;;;-8.10;99.90;;;;;;5097704;28;20541;-71
2022/01/30 06:09:01;;;;;;;21.77;4.60;;;-8.30;99.90;;;;;;5096578;28;20182;-71
2022/01/30 06:11:27;;;;;;;24.30;4.47;;;-6.00;99.90;;;;;;5097726;28;20463;-71
2022/01/30 06:13:52;;;;;;;21.10;4.67;;;-7.70;99.90;;;;;;5097158;28;20411;-71
2022/01/30 06:16:18;;;;;;;26.03;5.03;;;-7.50;99.90;;;;;;5097606;28;20294;-71
2022/01/30 06:18:45;;;;;;;15.03;4.57;;;-7.30;99.90;;;;;;5097468;28;20253;-72
2022/01/30 06:21:11;;;;;;;19.37;4.77;;;-6.90;99.90;;;;;;5097364;28;20179;-74
2022/01/30 06:23:40;;;;;;;32.13;5.33;;;-6.70;99.90;;;;;;5097190;28;20694;-75
2022/01/30 06:26:06;;;;;;;16.57;4.03;;;-6.90;99.90;;;;;;5097353;28;20533;-72
2022/01/30 06:28:31;;;;;;;15.63;4.13;;;-7.10;99.90;;;;;;5095851;28;20410;-73
2022/01/30 06:30:57;;;;;;;12.20;4.20;;;-7.50;99.90;;;;;;5097296;28;20197;-72
2022/01/30 06:33:23;;;;;;;15.37;4.73;;;-7.40;99.90;;;;;;5097148;28;20175;-74
2022/01/30 06:35:48;;;;;;;10.70;4.17;;;-8.00;99.90;;;;;;5097211;28;20168;-70
2022/01/30 06:38:14;;;;;;;15.67;4.67;;;-8.20;99.90;;;;;;5096936;28;20174;-74
2022/01/30 06:40:40;;;;;;;13.27;4.30;;;-7.90;99.90;;;;;;5097171;28;20176;-76
2022/01/30 06:43:06;;;;;;;18.83;6.63;;;-6.80;99.90;;;;;;5096758;28;20183;-71
2022/01/30 06:45:32;;;;;;;15.60;3.90;;;-7.80;99.90;;;;;;5096013;28;20187;-73
2022/01/30 06:47:58;;;;;;;18.33;4.40;;;-7.60;99.90;;;;;;5096676;28;20247;-70
2022/01/30 06:50:24;;;;;;;10.07;3.47;;;-8.20;99.90;;;;;;5096964;28;20403;-70
2022/01/30 06:52:50;;;;;;;15.83;4.13;;;-8.30;99.90;;;;;;5096699;28;20181;-70
2022/01/30 06:55:16;;;;;;;18.37;5.07;;;-7.60;99.90;;;;;;5096787;28;20399;-71
2022/01/30 06:57:44;;;;;;;15.87;4.50;;;-7.40;99.90;;;;;;5096320;28;20167;-72
2022/01/30 07:00:10;;;;;;;18.57;4.87;;;-7.30;99.90;;;;;;5096660;28;20202;-71
2022/01/30 07:02:36;;;;;;;11.97;4.17;;;-6.90;99.90;;;;;;5096401;28;20421;-71
2022/01/30 07:05:02;;;;;;;18.57;5.00;;;-7.00;99.90;;;;;;5096472;28;20898;-71
2022/01/30 07:07:29;;;;;;;20.13;4.37;;;-7.20;99.90;;;;;;5096145;28;20603;-71
2022/01/30 07:09:55;;;;;;;13.23;5.77;;;-6.70;99.90;;;;;;5095479;28;20481;-71
2022/01/30 07:12:21;;;;;;;14.37;5.00;;;-7.10;99.90;;;;;;5096001;28;20471;-70
2022/01/30 07:14:47;;;;;;;16.33;4.30;;;-7.80;99.90;;;;;;5096324;28;20501;-71
2022/01/30 07:17:13;;;;;;;16.80;4.33;;;-8.00;99.90;;;;;;5096222;28;20616;-71
2022/01/30 07:19:38;;;;;;;10.70;3.90;;;-8.60;99.90;;;;;;5096105;28;20400;-71
2022/01/30 07:22:04;;;;;;;13.30;4.17;;;-8.10;99.90;;;;;;5096103;28;20263;-71
2022/01/30 07:24:30;;;;;;;27.47;5.70;;;-8.20;99.90;;;;;;5095854;28;20460;-71
2022/01/30 07:26:56;;;;;;;19.73;4.93;;;-8.00;99.90;;;;;;5095398;28;20205;-76
2022/01/30 07:29:22;;;;;;;26.63;4.90;;;-8.50;99.90;;;;;;5095857;28;20171;-72
2022/01/30 07:31:47;;;;;;;9.63;3.77;;;-7.80;99.90;;;;;;5094947;28;20177;-72
2022/01/30 07:34:13;;;;;;;11.00;3.73;;;-8.00;99.90;;;;;;5095054;28;20175;-75
2022/01/30 07:36:41;;;;;;;22.40;5.97;;;-8.10;99.90;;;;;;5095724;28;20178;-72
2022/01/30 07:39:08;;;;;;;24.33;4.97;;;-7.90;99.90;;;;;;5095681;28;20169;-71
2022/01/30 07:41:35;;;;;;;14.70;5.17;;;-7.60;99.90;;;;;;5095751;28;20427;-76
2022/01/30 07:44:02;;;;;;;24.27;5.83;;;-7.30;99.90;;;;;;5094834;28;20539;-76
2022/01/30 07:46:29;;;;;;;13.80;4.20;;;-6.60;99.90;;;;;;5094795;28;20456;-74
2022/01/30 07:48:55;;;;;;;15.03;4.57;;;-6.20;99.90;;;;;;5095831;28;20477;-75
2022/01/30 07:51:21;;;;;;;12.60;3.67;;;-6.00;99.90;;;;;;5095924;28;20490;-73
2022/01/30 07:53:47;;;;;;;14.80;5.23;;;-6.70;99.90;;;;;;5088412;28;20428;-73
2022/01/30 07:56:13;;;;;;;15.47;4.40;;;-7.10;99.90;;;;;;5067577;28;20406;-71
2022/01/30 07:58:38;;;;;;;25.50;6.67;;;-6.90;99.90;;;;;;5053904;28;20513;-74
2022/01/30 08:01:04;;;;;;;13.13;4.63;;;-7.20;99.90;;;;;;5055289;28;20192;-72
2022/01/30 08:03:31;;;;;;;16.47;4.37;;;-7.50;99.90;;;;;;5054331;28;20174;-72
2022/01/30 08:05:57;;;;;;;16.83;4.83;;;-8.00;99.90;;;;;;5054229;28;20415;-73
2022/01/30 08:08:23;;;;;;;14.67;4.87;;;-8.30;99.90;;;;;;5054439;28;20446;-71
2022/01/30 08:10:49;;;;;;;20.40;5.40;;;-6.70;99.90;;;;;;5054940;28;20448;-73
2022/01/30 08:13:16;;;;;;;19.83;5.50;;;-7.90;99.90;;;;;;5055601;28;20183;-71
2022/01/30 08:15:44;;;;;;;18.43;4.57;;;-8.00;99.90;;;;;;5055224;28;20413;-71
2022/01/30 08:18:09;;;;;;;16.70;4.97;;;-8.30;99.90;;;;;;5055292;28;20400;-70
2022/01/30 08:20:35;;;;;;;10.40;4.20;;;-8.40;99.90;;;;;;5058739;28;20868;-72
2022/01/30 08:23:07;;;;;;;15.40;4.50;;;-7.80;99.90;;;;;;5059281;28;20274;-73
2022/01/30 08:25:33;;;;;;;12.70;4.67;;;-8.50;99.90;;;;;;5057628;28;20180;-69
2022/01/30 08:27:58;;;;;;;15.87;4.37;;;-8.00;99.90;;;;;;5059108;28;20768;-69
2022/01/30 08:30:27;;;;;;;17.40;4.43;;;-7.60;99.90;;;;;;5060462;28;20180;-69
2022/01/30 08:32:52;;;;;;;26.10;5.20;;;-7.50;99.90;;;;;;5069064;28;20186;-70
2022/01/30 08:35:22;;;;;;;12.57;4.50;;;-7.20;99.90;;;;;;5078375;28;20698;-72
2022/01/30 08:37:48;;;;;;;21.43;5.27;;;-6.50;99.90;;;;;;5076299;28;20176;-71
2022/01/30 08:40:17;;;;;;;20.80;5.60;;;-6.80;99.90;;;;;;5064464;28;20721;-76
2022/01/30 08:42:44;;;;;;;19.47;5.67;;;-6.90;99.90;;;;;;5065568;28;20180;-73
2022/01/30 08:45:13;;;;;;;17.00;4.40;;;-7.00;99.90;;;;;;5069705;28;20424;-71
2022/01/30 08:47:40;;;;;;;16.80;4.97;;;-7.30;99.90;;;;;;5065220;28;20451;-72
2022/01/30 08:50:06;;;;;;;14.57;4.33;;;-8.90;99.90;;;;;;5058619;28;20398;-72
2022/01/30 08:52:32;;;;;;;21.93;5.87;;;-8.60;99.90;;;;;;5076649;28;20703;-71
2022/01/30 08:54:58;;;;;;;19.30;5.83;;;-8.80;99.90;;;;;;5078359;28;20400;-72
2022/01/30 08:57:24;;;;;;;11.93;4.83;;;-8.80;99.90;;;;;;5078749;28;20199;-73
2022/01/30 08:59:51;;;;;;;16.20;4.70;;;-9.40;99.90;;;;;;5070280;28;20174;-71
2022/01/30 09:02:19;;;;;;;12.90;5.17;;;-8.60;99.90;;;;;;5058308;28;20271;-72
2022/01/30 09:04:44;;;;;;;16.07;5.10;;;-8.60;99.90;;;;;;5058503;28;20848;-75
2022/01/30 09:07:10;;;;;;;14.20;4.60;;;-6.40;99.90;;;;;;5058102;28;20440;-71
2022/01/30 09:09:36;;;;;;;11.10;4.23;;;-8.40;99.90;;;;;;5056532;28;20601;-72
2022/01/30 09:12:03;;;;;;;23.67;4.23;;;-8.30;99.90;;;;;;5058092;28;20162;-72
2022/01/30 09:14:29;;;;;;;19.27;6.03;;;-8.20;99.90;;;;;;5058434;28;20183;-72
2022/01/30 09:16:55;;;;;;;10.93;5.07;;;-8.60;99.90;;;;;;5066007;28;20410;-73
2022/01/30 09:19:21;;;;;;;14.60;4.30;;;-8.40;99.90;;;;;;5078250;28;20468;-75
2022/01/30 09:21:47;;;;;;;9.90;3.53;;;-6.90;99.90;;;;;;5077747;28;20191;-75
2022/01/30 09:24:14;;;;;;;16.90;4.87;;;-9.00;99.90;;;;;;5078054;28;20408;-76
2022/01/30 09:26:40;;;;;;;11.73;4.07;;;-8.60;99.90;;;;;;5077393;28;20441;-76
2022/01/30 09:29:05;;;;;;;13.40;4.40;;;-8.70;99.90;;;;;;5076576;28;20490;-76
2022/01/30 09:31:31;;;;;;;19.57;6.10;;;-8.80;99.90;;;;;;5077971;28;20439;-78
2022/01/30 09:33:57;;;;;;;19.97;4.77;;;-8.50;99.90;;;;;;5077799;28;20169;-78
2022/01/30 09:36:23;;;;;;;17.20;4.23;;;-8.80;99.90;;;;;;5076805;28;20164;-80
2022/01/30 09:38:50;;;;;;;17.13;5.07;;;-8.60;99.90;;;;;;5076543;28;20201;-76
2022/01/30 09:41:16;;;;;;;27.37;5.53;;;-8.40;99.90;;;;;;5076331;28;20178;-75
2022/01/30 09:43:44;;;;;;;22.47;5.47;;;-8.30;99.90;;;;;;5076776;28;20415;-76
2022/01/30 09:46:11;;;;;;;15.03;4.63;;;-7.40;99.90;;;;;;5075561;28;20976;-75
2022/01/30 09:48:38;;;;;;;16.33;6.80;;;-7.90;99.90;;;;;;5057493;28;20404;-78
2022/01/30 09:51:08;;;;;;;16.37;4.30;;;-7.20;99.90;;;;;;5065820;28;20901;-74
2022/01/30 09:53:35;;;;;;;16.73;5.87;;;-8.80;99.90;;;;;;5077423;28;20391;-75
2022/01/30 09:56:03;;;;;;;13.57;4.43;;;-7.90;99.90;;;;;;5076891;28;20495;-75
2022/01/30 09:58:30;;;;;;;12.40;3.57;;;-8.60;99.90;;;;;;5077416;28;20421;-74
2022/01/30 10:00:56;;;;;;;16.27;5.77;;;-9.00;99.90;;;;;;5076134;28;20435;-74
2022/01/30 10:03:26;;;;;;;16.67;5.00;;;-8.40;99.90;;;;;;5077035;28;20401;-78
2022/01/30 10:06:08;;;;;;;18.13;4.67;;;-6.40;99.90;;;;;;5075895;28;20483;-75
2022/01/30 10:08:41;;;;;;;13.50;4.53;;;-7.90;99.90;;;;;;5075326;28;20914;-74
2022/01/30 10:11:26;;;;;;;15.53;4.80;;;-8.40;99.90;;;;;;5076854;28;20706;-73
2022/01/30 10:14:01;;;;;;;19.50;5.10;;;-7.70;99.90;;;;;;5076762;28;20431;-71
2022/01/30 10:16:27;;;;;;;8.20;3.70;;;-7.70;99.90;;;;;;5077243;28;20411;-73
2022/01/30 10:18:53;;;;;;;24.07;6.13;;;-7.60;99.90;;;;;;5076884;28;20413;-73
2022/01/30 10:21:20;;;;;;;26.07;5.93;;;-7.60;99.90;;;;;;5076879;28;20187;-73
2022/01/30 10:23:46;;;;;;;12.73;5.03;;;-7.90;99.90;;;;;;5068956;28;20406;-75
2022/01/30 10:26:18;;;;;;;20.50;5.23;;;-7.80;99.90;;;;;;5056689;28;20742;-73
2022/01/30 10:28:44;;;;;;;11.23;4.53;;;-7.90;99.90;;;;;;5056635;28;20168;-73
2022/01/30 10:31:11;;;;;;;22.10;5.40;;;-8.10;99.90;;;;;;5062910;28;20470;-69
2022/01/30 10:33:39;;;;;;;20.27;5.13;;;-6.90;99.90;;;;;;5074748;28;20453;-70
2022/01/30 10:36:08;;;;;;;14.73;6.00;;;-8.20;99.90;;;;;;5075269;28;20561;-73
2022/01/30 10:38:39;;;;;;;19.97;5.60;;;-8.60;99.90;;;;;;5076462;28;20390;-70
2022/01/30 10:41:20;;;;;;;23.77;5.10;;;-8.70;99.90;;;;;;5074953;28;20407;-74
2022/01/30 10:43:53;;;;;;;14.90;4.50;;;-8.30;99.90;;;;;;5075801;28;20411;-74
2022/01/30 10:46:23;;;;;;;21.87;5.23;;;-8.20;99.90;;;;;;5076112;28;20443;-71
2022/01/30 10:48:55;;;;;;;15.73;7.03;;;-8.10;99.90;;;;;;5074277;28;20404;-74
2022/01/30 10:51:22;;;;;;;18.90;4.63;;;-8.10;99.90;;;;;;5075928;28;20249;-72
2022/01/30 10:53:50;;;;;;;22.37;6.23;;;-7.40;99.90;;;;;;5073964;28;20427;-72
2022/01/30 10:56:27;;;;;;;18.20;5.00;;;-8.20;99.90;;;;;;5075279;28;20582;-73
2022/01/30 10:59:17;;;;;;;28.03;7.20;;;-8.10;99.90;;;;;;5075791;28;20437;-72
2022/01/30 11:01:44;;;;;;;16.97;6.90;;;-8.10;99.90;;;;;;5074323;28;20481;-72
2022/01/30 11:04:26;;;;;;;20.43;5.67;;;-7.60;99.90;;;;;;5075883;28;20759;-73
2022/01/30 11:06:54;;;;;;;19.77;4.20;;;-7.30;99.90;;;;;;5074823;28;20498;-77
2022/01/30 11:09:25;;;;;;;12.20;5.27;;;-7.70;99.90;;;;;;5074526;28;20287;-75
2022/01/30 11:11:58;;;;;;;14.60;5.87;;;-7.90;99.90;;;;;;5075731;28;20198;-73
2022/01/30 11:14:35;;;;;;;20.97;6.90;;;-8.10;99.90;;;;;;5075820;28;20589;-75
2022/01/30 11:17:07;;;;;;;18.50;7.13;;;-7.60;99.90;;;;;;5076176;28;20404;-76
2022/01/30 11:19:38;;;;;;;24.57;5.70;;;-8.20;99.90;;;;;;5074455;28;20677;-77
2022/01/30 11:22:07;;;;;;;23.40;6.93;;;-8.00;99.90;;;;;;5075815;28;20269;-78
2022/01/30 11:24:38;;;;;;;17.77;7.87;;;-7.90;99.90;;;;;;5075134;28;20643;-77
2022/01/30 11:27:05;;;;;;;18.70;6.17;;;-8.00;99.90;;;;;;5075670;28;20267;-76
2022/01/30 11:29:35;;;;;;;24.67;5.47;;;-7.10;99.90;;;;;;5068537;28;20234;-80
2022/01/30 11:32:05;;;;;;;16.83;4.77;;;-8.50;99.90;;;;;;5064516;28;20523;-74
2022/01/30 11:34:31;;;;;;;13.77;5.17;;;-7.30;99.90;;;;;;5062199;28;20694;-76
2022/01/30 11:36:58;;;;;;;17.97;6.07;;;-7.00;99.90;;;;;;5064905;28;20586;-76
2022/01/30 11:39:24;;;;;;;14.13;3.83;;;-7.30;99.90;;;;;;5063906;28;20180;-75
2022/01/30 11:42:11;;;;;;;15.67;5.37;;;-7.10;99.90;;;;;;5075404;28;20171;-75
2022/01/30 11:44:39;;;;;;;15.63;5.97;;;-6.70;99.90;;;;;;5072015;28;20172;-74
2022/01/30 11:47:07;;;;;;;22.50;5.37;;;-6.40;99.90;;;;;;5062983;28;20234;-76
2022/01/30 11:49:49;;;;;;;21.27;5.37;;;-6.20;99.90;;;;;;5064430;28;20163;-75
2022/01/30 11:52:17;;;;;;;14.93;4.87;;;-6.10;99.90;;;;;;5062424;28;20259;-74
2022/01/30 11:54:48;;;;;;;9.43;4.57;;;-6.70;99.90;;;;;;5065235;28;20175;-77
2022/01/30 11:57:22;;;;;;;28.87;6.27;;;-5.40;99.90;;;;;;5063993;28;20279;-74
2022/01/30 11:59:56;;;;;;;17.37;5.03;;;-5.90;99.90;;;;;;5055135;28;20165;-76
2022/01/30 12:02:27;;;;;;;15.83;4.53;;;-6.40;99.90;;;;;;5053882;28;20325;-75
2022/01/30 12:04:56;;;;;;;27.50;4.77;;;-6.50;99.90;;;;;;5055083;28;20264;-76
2022/01/30 12:07:37;;;;;;;14.63;4.10;;;-6.20;99.90;;;;;;5055352;28;20344;-75
2022/01/30 12:10:15;;;;;;;14.80;4.63;;;-6.10;99.90;;;;;;5054111;28;20269;-77
2022/01/30 12:12:53;;;;;;;16.57;3.40;;;-6.40;99.90;;;;;;5057734;28;20920;-77
2022/01/30 12:15:46;;;;;;;15.07;5.07;;;-6.10;99.90;;;;;;5063702;28;20248;-76
2022/01/30 12:18:44;;;;;;;12.73;4.10;;;-5.20;99.90;;;;;;5055494;28;20173;-75
2022/01/30 12:21:16;;;;;;;15.83;3.20;;;-5.10;99.90;;;;;;5032236;28;20612;-75
2022/01/30 12:23:43;;;;;;;24.43;6.07;;;-4.90;99.90;;;;;;5055366;28;20168;-75
2022/01/30 12:26:16;;;;;;;24.60;3.93;;;-2.70;99.90;;;;;;5055029;28;20168;-75
2022/01/30 12:28:42;;;;;;;20.07;3.77;;;-4.30;99.90;;;;;;5053592;28;20513;-76
2022/01/30 12:31:30;;;;;;;14.20;4.23;;;-4.50;99.90;;;;;;5054692;28;20175;-75
2022/01/30 12:34:06;;;;;;;19.83;4.50;;;-4.80;99.90;;;;;;5060114;28;20183;-76
2022/01/30 12:36:44;;;;;;;13.33;3.97;;;-4.80;99.90;;;;;;5066737;28;20179;-74
2022/01/30 12:39:16;;;;;;;17.90;3.93;;;-4.40;99.90;;;;;;5072215;28;20182;-72
2022/01/30 12:41:42;;;;;;;16.23;5.00;;;-3.90;99.90;;;;;;5066880;28;20191;-77
2022/01/30 12:44:13;;;;;;;9.90;3.60;;;-4.10;99.90;;;;;;5079825;28;20191;-74
2022/01/30 12:46:48;;;;;;;14.50;3.50;;;-2.10;99.90;;;;;;5072929;28;20278;-75
2022/01/30 12:49:16;;;;;;;16.93;4.50;;;-4.00;99.90;;;;;;5073990;28;20183;-72
2022/01/30 12:51:49;;;;;;;11.57;4.30;;;-4.80;99.90;;;;;;5061434;28;20256;-73
2022/01/30 12:54:20;;;;;;;16.63;4.17;;;-5.30;99.90;;;;;;5075161;28;20243;-73
2022/01/30 12:56:47;;;;;;;11.73;3.40;;;-5.10;99.90;;;;;;5074819;28;20179;-74
2022/01/30 12:59:14;;;;;;;13.70;5.67;;;-5.30;99.90;;;;;;5073410;28;20229;-73
2022/01/30 13:01:43;;;;;;;12.60;3.77;;;-5.20;99.90;;;;;;5074695;28;20214;-76
2022/01/30 13:04:17;;;;;;;12.03;4.17;;;-5.10;99.90;;;;;;5067043;28;20170;-76
2022/01/30 13:06:45;;;;;;;6.73;2.80;;;-5.30;99.90;;;;;;5058141;28;20307;-75
2022/01/30 13:09:16;;;;;;;12.53;4.37;;;-5.20;99.90;;;;;;5076598;28;20238;-77
2022/01/30 13:11:42;;;;;;;7.97;3.47;;;-6.80;99.90;;;;;;5077707;28;20188;-73
2022/01/30 13:14:09;;;;;;;17.03;4.40;;;-6.90;99.90;;;;;;5077852;28;20172;-75
2022/01/30 13:16:54;;;;;;;11.10;3.37;;;-7.70;99.90;;;;;;5076698;28;20181;-76
2022/01/30 13:19:42;;;;;;;10.73;3.43;;;-6.00;99.80;;;;;;5077340;28;20600;-71
2022/01/30 13:22:10;;;;;;;13.30;4.03;;;-5.70;99.90;;;;;;5076107;28;20189;-73
2022/01/30 13:24:37;;;;;;;7.53;4.40;;;-5.90;99.90;;;;;;5077916;28;20218;-73
2022/01/30 13:27:08;;;;;;;11.83;2.90;;;-6.10;99.90;;;;;;5077945;28;20594;-77
2022/01/30 13:29:36;;;;;;;13.47;3.87;;;-5.30;99.90;;;;;;5063772;28;20505;-77
2022/01/30 13:32:07;;;;;;;10.93;3.83;;;-6.20;99.00;;;;;;5057831;28;20175;-76
2022/01/30 13:34:34;;;;;;;11.27;4.00;;;-6.40;99.10;;;;;;5056455;28;20180;-74
2022/01/30 13:37:03;;;;;;;18.67;4.27;;;-5.60;98.80;;;;;;5056667;28;20221;-76
2022/01/30 13:40:03;;;;;;;7.97;3.20;;;-5.40;98.60;;;;;;5057681;28;20539;-74